D/T METAR WX W/DIR W/SPE G/SPE TEMP DEWP
19/03/19 02:50 EGXU 190250Z AUTO 21004KT 5000 // OVC028/// 07/06 Q1023 SSW (210°) 4.6mph 7°C 6°C
19/03/19 01:50 EGXU 190150Z AUTO 21004KT 5000 // OVC027/// 07/06 Q1023 SSW (210°) 4.6mph 7°C 6°C
19/03/19 00:50 EGXU 190050Z AUTO 22003KT 7000 // OVC026/// 07/06 Q1022 SW (220°) 3.5mph 7°C 6°C
18/03/19 23:50 EGXU 182350Z AUTO 21005KT 9000 // OVC027/// 07/06 Q1022 SSW (210°) 5.8mph 7°C 6°C
18/03/19 22:50 EGXU 182250Z AUTO 23005KT 9999 // SCT022/// BKN030/// 07/06 Q1022 SW (230°) 5.8mph 7°C 6°C
18/03/19 21:50 EGXU 182150Z 24004KT 9999 FEW025 BKN032 08/05 Q1022 BLU NOSIG WSW (240°) 4.6mph 8°C 5°C
18/03/19 20:50 EGXU 182050Z AUTO 23005KT 9999 // BKN027/// SCT080/// 08/05 Q1021 SW (230°) 5.8mph 8°C 5°C
18/03/19 19:50 EGXU 181950Z 23004KT 9999 SCT028 BKN080 08/05 Q1021 BLU NOSIG SW (230°) 4.6mph 8°C 5°C
18/03/19 18:50 EGXU 181850Z 25005KT 9999 BKN028 08/05 Q1020 BLU NOSIG WSW (250°) 5.8mph 8°C 5°C
18/03/19 17:50 EGXU 181750Z 25005KT 9999 FEW030 BKN038 09/05 Q1020 BLU NOSIG WSW (250°) 5.8mph 9°C 5°C
18/03/19 16:50 EGXU 181650Z 25006KT 9999 FEW030 BKN040 09/04 Q1019 BLU NOSIG WSW (250°) 6.9mph 9°C 4°C
18/03/19 15:50 EGXU 181550Z 26006KT 9999 FEW030 SCT040 09/03 Q1019 BLU NOSIG W (260°) 6.9mph 9°C 3°C
18/03/19 14:50 EGXU 181450Z 26011KT 9999 FEW030 SCT042 10/04 Q1018 BLU NOSIG W (260°) 12.7mph 10°C 4°C
18/03/19 13:50 EGXU 181350Z 26011KT 9999 SCT030 BKN055 11/04 Q1018 BLU NOSIG W (260°) 12.7mph 11°C 4°C
18/03/19 12:50 EGXU 181250Z 28009KT 9999 SCT030 BKN055 08/04 Q1018 BLU NOSIG W (280°) 10.4mph 8°C 4°C
18/03/19 11:50 EGXU 181150Z 29011KT 9999 SCT030 BKN060 10/03 Q1018 BLU WNW (290°) 12.7mph 10°C 3°C
18/03/19 10:50 EGXU 181050Z 28008KT 9999 SCT026 09/04 Q1018 BLU W (280°) 9.2mph 9°C 4°C
18/03/19 09:50 EGXU 180950Z AUTO 29005KT 9999 // NCD 08/03 Q1017 WNW (290°) 5.8mph 8°C 3°C
18/03/19 08:50 EGXU 180850Z AUTO 33003KT 9999 // NCD 07/03 Q1017 NNW (330°) 3.5mph 7°C 3°C
18/03/19 07:50 EGXU 180750Z AUTO 31003KT 9999 // NCD 02/00 Q1017 NW (310°) 3.5mph 2°C 0°C
18/03/19 06:50 EGXU 180650Z AUTO 26005KT 9999 // NCD 01/M02 Q1016 W (260°) 5.8mph 1°C -2°C
18/03/19 05:50 EGXU 180550Z AUTO 30002KT 9999 // FEW033/// 03/M01 Q1016 WNW (300°) 2.3mph 3°C -1°C
18/03/19 04:50 EGXU 180450Z AUTO 28006KT 9999 // FEW041/// BKN140/// 03/00 Q1015 W (280°) 6.9mph 3°C 0°C
18/03/19 03:50 EGXU 180350Z AUTO 26006KT 9999 // FEW160/// 03/M00 Q1015 W (260°) 6.9mph 3°C 0°C
18/03/19 02:50 EGXU 180250Z AUTO 29004KT 9999 // BKN200/// 03/00 Q1014 WNW (290°) 4.6mph 3°C 0°C
18/03/19 01:50 EGXU 180150Z AUTO 28010KT 9999 // FEW050/// 04/01 Q1014 W (280°) 11.5mph 4°C 1°C
18/03/19 00:50 EGXU 180050Z AUTO 27007KT 9999 // FEW220/// 03/00 Q1013 W (270°) 8.1mph 3°C 0°C
17/03/19 23:50 EGXU 172350Z AUTO 24006KT 9999 // NCD 04/M00 Q1012 WSW (240°) 6.9mph 4°C 0°C
17/03/19 22:50 EGXU 172250Z AUTO 27009KT 9999 // SCT050/// 05/02 Q1011 W (270°) 10.4mph 5°C 2°C
17/03/19 21:50 EGXU 172150Z AUTO 27007KT 9999 // BKN050/// 06/02 Q1011 W (270°) 8.1mph 6°C 2°C
17/03/19 20:50 EGXU 172050Z AUTO 27006KT 9999 // FEW060/// 05/02 Q1010 W (270°) 6.9mph 5°C 2°C
17/03/19 19:50 EGXU 171950Z AUTO 26007KT 9999 // BKN050/// 06/02 Q1008 W (260°) 8.1mph 6°C 2°C
17/03/19 18:50 EGXU 171850Z AUTO 28010KT 9999 // FEW060/// 06/02 Q1007 W (280°) 11.5mph 6°C 2°C
17/03/19 17:50 EGXU 171750Z AUTO 29012KT 9999 // SCT031/// BKN050/// 08/03 Q1005 WNW (290°) 13.8mph 8°C 3°C
17/03/19 16:50 EGXU 171650Z AUTO 27012KT 9999 // FEW034/// 09/02 Q1004 W (270°) 13.8mph 9°C 2°C
17/03/19 15:50 EGXU 171550Z AUTO 28015KT 9999 // FEW036/// 09/02 Q1003 W (280°) 17.3mph 9°C 2°C
17/03/19 14:50 EGXU 171450Z AUTO 28016G26KT 9999 // SCT039/// BKN050/// 09/01 Q1002 W (280°) 18.4mph 29.9mph 9°C 1°C
17/03/19 13:50 EGXU 171350Z AUTO 28015KT 9999 // SCT042/// BKN049/// 09/00 Q1001 W (280°) 17.3mph 9°C 0°C
17/03/19 12:50 EGXU 171250Z AUTO 27015KT 9999 // FEW034/// BKN044/// 08/M00 Q1000 W (270°) 17.3mph 8°C 0°C
17/03/19 11:50 EGXU 171150Z AUTO 27014G24KT 9999 // FEW034/// 08/01 Q1000 W (270°) 16.1mph 27.6mph 8°C 1°C
17/03/19 10:50 EGXU 171050Z AUTO 28015G25KT 9999 // BKN029/// 08/01 Q0999 W (280°) 17.3mph 28.8mph 8°C 1°C
17/03/19 09:50 EGXU 170950Z AUTO 28014KT 9999 // FEW023/// 07/02 Q0999 W (280°) 16.1mph 7°C 2°C
17/03/19 08:50 EGXU 170850Z AUTO 27010G20KT 9999 // NCD 05/01 Q0998 W (270°) 11.5mph 23.0mph 5°C 1°C
17/03/19 07:50 EGXU 170750Z AUTO 28014KT 9999 // FEW070/// 04/00 Q0997 W (280°) 16.1mph 4°C 0°C
17/03/19 06:50 EGXU 170650Z AUTO 27006KT 9999 // FEW160/// 04/01 Q0996 W (270°) 6.9mph 4°C 1°C
17/03/19 05:50 EGXU 170550Z AUTO 26013KT 9999 // BKN160/// 03/01 Q0995 W (260°) 15.0mph 3°C 1°C
17/03/19 04:50 EGXU 170450Z AUTO 25007KT 9999 // FEW160/// 03/00 Q0994 WSW (250°) 8.1mph 3°C 0°C
17/03/19 03:50 EGXU 170350Z AUTO 29006KT 9999 // FEW180/// 03/00 Q0994 WNW (290°) 6.9mph 3°C 0°C
17/03/19 02:50 EGXU 170250Z AUTO 28008KT 9999 // NCD 03/01 Q0993 W (280°) 9.2mph 3°C 1°C
17/03/19 01:50 EGXU 170150Z AUTO 28006KT 9999 // NCD 04/01 Q0992 W (280°) 6.9mph 4°C 1°C
17/03/19 00:50 EGXU 170050Z AUTO 28008KT 9999 // BKN130/// 04/00 Q0992 W (280°) 9.2mph 4°C 0°C
16/03/19 23:50 EGXU 162350Z AUTO 27005KT 9999 // NCD 04/01 Q0991 W (270°) 5.8mph 4°C 1°C
16/03/19 22:50 EGXU 162250Z AUTO 29008KT 9999 // NCD 05/01 Q0991 WNW (290°) 9.2mph 5°C 1°C
16/03/19 21:50 EGXU 162150Z AUTO 27010KT 9999 // FEW240/// 05/01 Q0990 W (270°) 11.5mph 5°C 1°C
16/03/19 20:50 EGXU 162050Z AUTO 28013KT 9999 // SCT190/// 05/01 Q0989 W (280°) 15.0mph 5°C 1°C
16/03/19 19:50 EGXU 161950Z AUTO 27013KT 9999 // FEW027/// BKN080/// 06/02 Q0988 W (270°) 15.0mph 6°C 2°C
16/03/19 18:50 EGXU 161850Z AUTO 27022G34KT 9999 // SCT021/// SCT070/// 07/04 Q0987 W (270°) 25.3mph 39.1mph 7°C 4°C
16/03/19 17:50 EGXU 161750Z AUTO 24022G33KT 9999 // FEW017/// BKN050/// 10/08 Q0985 WSW (240°) 25.3mph 38.0mph 10°C 8°C
16/03/19 16:50 EGXU 161650Z AUTO 22016KT 9999 // FEW023/// BKN050/// 11/09 Q0985 SW (220°) 18.4mph 11°C 9°C
16/03/19 15:50 EGXU 161550Z AUTO 21021KT 9999 // FEW027/// BKN044/// 11/09 Q0986 SSW (210°) 24.2mph 11°C 9°C
16/03/19 14:50 EGXU 161450Z AUTO 21019KT 9999 // BKN019/// 12/09 Q0986 SSW (210°) 21.9mph 12°C 9°C
16/03/19 13:50 EGXU 161350Z AUTO 22019G30KT 9999 // FEW020/// BKN050/// 11/09 Q0988 SW (220°) 21.9mph 34.5mph 11°C 9°C
16/03/19 12:50 EGXU 161250Z AUTO 22020KT 9999 // SCT020/// BKN025/// 12/09 Q0989 SW (220°) 23.0mph 12°C 9°C
16/03/19 11:50 EGXU 161150Z AUTO 22019KT 9999 // BKN019/// SCT043/// 12/09 Q0990 SW (220°) 21.9mph 12°C 9°C
16/03/19 10:50 EGXU 161050Z AUTO 21018G28KT 8000 // BKN019/// 11/09 Q0991 SSW (210°) 20.7mph 32.2mph 11°C 9°C
16/03/19 09:50 EGXU 160950Z AUTO 22016KT 9999 // SCT017/// BKN050/// 11/09 Q0992 SW (220°) 18.4mph 11°C 9°C
16/03/19 08:50 EGXU 160850Z AUTO 22012KT 9999 // BKN017/// 10/09 Q0992 SW (220°) 13.8mph 10°C 9°C
16/03/19 07:50 EGXU 160750Z AUTO 16008KT 4700 // FEW003/// BKN019/// BKN025/// 07/07 Q0993 SSE (160°) 9.2mph 7°C 7°C
16/03/19 06:50 EGXU 160650Z AUTO 13009KT 4400 // BKN003/// SCT010/// BKN017/// 06/05 Q0994 SE (130°) 10.4mph 6°C 5°C
16/03/19 05:50 EGXU 160550Z AUTO 12009KT 2700 // BKN003/// BKN012/// 05/05 Q0996 ESE (120°) 10.4mph 5°C 5°C
16/03/19 04:50 EGXU 160450Z AUTO 11007KT 3900 // SCT005/// BKN013/// 05/04 Q0998 ESE (110°) 8.1mph 5°C 4°C
16/03/19 03:50 EGXU 160350Z AUTO 13006KT 7000 // SCT014/// SCT031/// 05/05 Q1000 SE (130°) 6.9mph 5°C 5°C
16/03/19 02:50 EGXU 160250Z AUTO 14005KT 7000 // BKN018/// 05/04 Q1002 SE (140°) 5.8mph 5°C 4°C
16/03/19 01:50 EGXU 160150Z AUTO 17006KT 8000 // FEW024/// BKN029/// BKN060/// 05/04 Q1003 S (170°) 6.9mph 5°C 4°C
16/03/19 00:50 EGXU 160050Z AUTO 16005KT 9999 // OVC070/// 06/03 Q1004 SSE (160°) 5.8mph 6°C 3°C
15/03/19 23:50 EGXU 152350Z AUTO 19006KT 9999 // BKN070/// BKN140/// 07/03 Q1005 S (190°) 6.9mph 7°C 3°C
15/03/19 22:50 EGXU 152250Z AUTO 23011KT 9999 // BKN140/// 07/01 Q1005 SW (230°) 12.7mph 7°C 1°C
15/03/19 21:50 EGXU 152150Z AUTO 25006KT 9999 // NCD 05/01 Q1005 WSW (250°) 6.9mph 5°C 1°C
15/03/19 20:50 EGXU 152050Z AUTO 25008KT 9999 // NCD 06/01 Q1006 WSW (250°) 9.2mph 6°C 1°C
15/03/19 19:50 EGXU 151950Z AUTO 28012KT 9999 // NCD 07/01 Q1005 W (280°) 13.8mph 7°C 1°C
15/03/19 18:50 EGXU 151850Z AUTO 28012KT 9999 // SCT200/// 07/01 Q1005 W (280°) 13.8mph 7°C 1°C
15/03/19 17:50 EGXU 151750Z AUTO 29012KT 9999 // BKN036/// SCT070/// 08/02 Q1004 WNW (290°) 13.8mph 8°C 2°C
15/03/19 16:50 EGXU 151650Z AUTO 28018G30KT 9999 // FEW200/// 09/02 Q1003 W (280°) 20.7mph 34.5mph 9°C 2°C
15/03/19 15:50 EGXU 151550Z AUTO 28020G31KT 9999 // FEW036/// 10/02 Q1002 W (280°) 23.0mph 35.7mph 10°C 2°C
15/03/19 14:50 EGXU 151450Z AUTO 26019KT 9999 // FEW027/// SCT032/// 09/03 Q1002 W (260°) 21.9mph 9°C 3°C
15/03/19 13:50 EGXU 151350Z AUTO 27022G35KT 9999 // BKN045/// 10/01 Q1001 W (270°) 25.3mph 40.3mph 10°C 1°C
15/03/19 12:50 EGXU 151250Z AUTO 28021G31KT 9999 // FEW040/// 11/02 Q1001 W (280°) 24.2mph 35.7mph 11°C 2°C
15/03/19 11:50 EGXU 151150Z AUTO 27022G35KT 9999 // SCT039/// 11/03 Q1000 W (270°) 25.3mph 40.3mph 11°C 3°C
15/03/19 10:50 EGXU 151050Z AUTO 27023G35KT 9999 // FEW032/// 11/03 Q0999 W (270°) 26.5mph 40.3mph 11°C 3°C
15/03/19 09:50 EGXU 150950Z AUTO 27022G34KT 9999 // FEW070/// 09/04 Q0999 W (270°) 25.3mph 39.1mph 9°C 4°C
15/03/19 08:50 EGXU 150850Z 27017G29KT 9999 FEW026 10/05 Q0998 BLU TEMPO 29025G40KT BLU W (270°) 19.6mph 33.4mph 10°C 5°C
15/03/19 07:50 EGXU 150750Z 28017G33KT 9999 FEW020 SCT028 BKN250 10/06 Q0997 BLU W (280°) 19.6mph 38.0mph 10°C 6°C
15/03/19 06:50 EGXU 150650Z AUTO 27020G37KT 9999 // FEW025/// 11/07 Q0995 W (270°) 23.0mph 42.6mph 11°C 7°C
15/03/19 05:50 EGXU 150550Z AUTO 27021G34KT 9999 // BKN180/// 11/08 Q0994 W (270°) 24.2mph 39.1mph 11°C 8°C
15/03/19 04:50 EGXU 150450Z AUTO 26017KT 9999 // BKN016/// BKN023/// 11/09 Q0994 W (260°) 19.6mph 11°C 9°C
15/03/19 03:50 EGXU 150350Z AUTO 18009KT 9999 // BKN010/// BKN021/// 07/06 Q0995 S (180°) 10.4mph 7°C 6°C
15/03/19 02:50 EGXU 150250Z AUTO 15007KT 7000 // BKN006/// 07/06 Q0997 SSE (150°) 8.1mph 7°C 6°C
15/03/19 01:50 EGXU 150150Z AUTO 21012KT 7000 // FEW018/// SCT030/// BKN045/// 07/05 Q0998 SSW (210°) 13.8mph 7°C 5°C
15/03/19 00:50 EGXU 150050Z AUTO 23011KT 9999 // BKN019/// 08/04 Q1000 SW (230°) 12.7mph 8°C 4°C
14/03/19 23:50 EGXU 142350Z AUTO 25011KT 9999 // BKN023/// SCT044/// 08/04 Q1000 WSW (250°) 12.7mph 8°C 4°C
14/03/19 22:50 EGXU 142250Z AUTO 23007KT 9999 // BKN024/// 08/04 Q1002 SW (230°) 8.1mph 8°C 4°C
14/03/19 21:50 EGXU 142150Z AUTO 26009KT 9999 // SCT038/// BKN160/// 08/04 Q1002 W (260°) 10.4mph 8°C 4°C
14/03/19 20:50 EGXU 142050Z AUTO 26010KT 9999 // FEW036/// BKN110/// 08/04 Q1002 W (260°) 11.5mph 8°C 4°C
14/03/19 19:50 EGXU 141950Z AUTO 26009G19KT 9999 // BKN160/// 08/03 Q1002 W (260°) 10.4mph 21.9mph 8°C 3°C
14/03/19 18:50 EGXU 141850Z AUTO 26015KT 9999 // FEW200/// 08/03 Q1002 W (260°) 17.3mph 8°C 3°C
14/03/19 17:50 EGXU 141750Z AUTO 28012KT 9999 // FEW050/// 09/03 Q1002 W (280°) 13.8mph 9°C 3°C
14/03/19 16:50 EGXU 141650Z AUTO 27014KT 9999 // FEW035/// BKN042/// 10/03 Q1001 W (270°) 16.1mph 10°C 3°C
14/03/19 15:50 EGXU 141550Z AUTO 28016KT 9999 // FEW047/// 10/03 Q1000 W (280°) 18.4mph 10°C 3°C
14/03/19 14:50 EGXU 141450Z AUTO 29021KT 9999 // FEW033/// BKN040/// 09/05 Q1000 WNW (290°) 24.2mph 9°C 5°C
14/03/19 13:50 EGXU 141350Z 29020G31KT 9999 FEW048 12/02 Q0998 BLU TEMPO 30025G42KT BLU WNW (290°) 23.0mph 35.7mph 12°C 2°C
14/03/19 12:50 EGXU 141250Z 29021G32KT 9999 FEW048 12/02 Q0997 BLU NOSIG WNW (290°) 24.2mph 36.8mph 12°C 2°C
14/03/19 11:50 EGXU 141150Z 30028G38KT 9999 SCT040 11/02 Q0996 BLU NOSIG WNW (300°) 32.2mph 43.7mph 11°C 2°C
14/03/19 10:50 EGXU 141050Z 29021KT 9999 SCT034 11/04 Q0995 BLU TEMPO 29025G40KT BLU WNW (290°) 24.2mph 11°C 4°C
14/03/19 09:50 EGXU 140950Z 28017G28KT 9999 FEW024 10/05 Q0994 BLU NOSIG W (280°) 19.6mph 32.2mph 10°C 5°C
14/03/19 08:50 EGXU 140850Z 29020G36KT 9999 FEW024 SCT030 10/05 Q0993 BLU NOSIG WNW (290°) 23.0mph 41.4mph 10°C 5°C
14/03/19 07:50 EGXU 140750Z AUTO 29022KT 9999 // SCT035/// 10/06 Q0992 WNW (290°) 25.3mph 10°C 6°C
14/03/19 06:50 EGXU 140650Z AUTO 26022G32KT 9999 // SCT027/// BKN050/// 09/08 Q0990 W (260°) 25.3mph 36.8mph 9°C 8°C
14/03/19 05:50 EGXU 140550Z AUTO 24023G33KT 9999 // SCT017/// SCT070/// BKN120/// 09/07 Q0991 WSW (240°) 26.5mph 38.0mph 9°C 7°C
14/03/19 04:50 EGXU 140450Z AUTO 24019KT 9999 // BKN020/// BKN033/// 09/06 Q0994 WSW (240°) 21.9mph 9°C 6°C
14/03/19 03:50 EGXU 140350Z AUTO 24018G30KT 9999 // SCT023/// BKN130/// 08/05 Q0995 WSW (240°) 20.7mph 34.5mph 8°C 5°C
14/03/19 02:50 EGXU 140250Z AUTO 24018KT 9999 // OVC023/// 08/05 Q0998 WSW (240°) 20.7mph 8°C 5°C
14/03/19 01:50 EGXU 140150Z AUTO 24017KT 9999 // BKN022/// 08/05 Q1001 WSW (240°) 19.6mph 8°C 5°C
14/03/19 00:50 EGXU 140050Z AUTO 24020KT 9999 // SCT023/// BKN120/// 08/05 Q1002 WSW (240°) 23.0mph 8°C 5°C
13/03/19 23:50 EGXU 132350Z AUTO 24015KT 9999 // SCT022/// BKN100/// BKN160/// 07/05 Q1003 WSW (240°) 17.3mph 7°C 5°C
13/03/19 22:50 EGXU 132250Z AUTO 26016KT 9999 // FEW019/// BKN110/// 07/04 Q1005 W (260°) 18.4mph 7°C 4°C
13/03/19 21:50 EGXU 132150Z AUTO 27012KT 9999 // SCT020/// BKN060/// 07/04 Q1006 W (270°) 13.8mph 7°C 4°C
13/03/19 20:50 EGXU 132050Z AUTO 27012G22KT 9999 // OVC070/// 07/04 Q1006 W (270°) 13.8mph 25.3mph 7°C 4°C
13/03/19 19:50 EGXU 131950Z AUTO 28012G23KT 9999 // BKN060/// BKN120/// 08/02 Q1007 W (280°) 13.8mph 26.5mph 8°C 2°C
13/03/19 18:50 EGXU 131850Z AUTO 28014KT 9999 // OVC130/// 08/03 Q1007 W (280°) 16.1mph 8°C 3°C
13/03/19 17:50 EGXU 131750Z AUTO 28014G24KT 9999 // FEW060/// BKN140/// 08/03 Q1006 W (280°) 16.1mph 27.6mph 8°C 3°C
13/03/19 16:50 EGXU 131650Z AUTO 27012KT 9999 // BKN038/// 09/04 Q1006 W (270°) 13.8mph 9°C 4°C
13/03/19 15:50 EGXU 131550Z AUTO 28011KT 9999 // SCT038/// BKN050/// 10/03 Q1005 W (280°) 12.7mph 10°C 3°C
13/03/19 14:50 EGXU 131450Z AUTO 30024G36KT 9999 // BKN040/// 11/03 Q1003 WNW (300°) 27.6mph 41.4mph 11°C 3°C
13/03/19 13:50 EGXU 131350Z AUTO 31025G37KT 9999 // BKN040/// 11/03 Q1003 NW (310°) 28.8mph 42.6mph 11°C 3°C
13/03/19 12:50 EGXU 131250Z AUTO 30027G38KT 9999 // SCT042/// 11/02 Q1002 WNW (300°) 31.1mph 43.7mph 11°C 2°C
13/03/19 11:50 EGXU 131150Z 29023G33KT 9999 FEW028 SCT035 11/04 Q1000 BLU NOSIG WNW (290°) 26.5mph 38.0mph 11°C 4°C
13/03/19 10:50 EGXU 131050Z 30025G38KT 9999 BKN039 10/03 Q0999 BLU NOSIG WNW (300°) 28.8mph 43.7mph 10°C 3°C
13/03/19 09:50 EGXU 130950Z 30027G40KT 9999 FEW028 SCT040 10/02 Q0997 BLU NOSIG WNW (300°) 31.1mph 46.0mph 10°C 2°C
13/03/19 08:50 EGXU 130850Z 28019KT 9999 FEW020 SCT044 08/03 Q0996 BLU BECMG 28025G40KT BLU W (280°) 21.9mph 8°C 3°C
13/03/19 07:50 EGXU 130750Z 28018KT 9999 FEW020CB SCT140 08/03 Q0994 BLU BECMG 29025G42KT BLU W (280°) 20.7mph 8°C 3°C
13/03/19 06:50 EGXU 130650Z 28013G23KT 9999 FEW016 SCT140 07/03 Q0993 BLU W (280°) 15.0mph 26.5mph 7°C 3°C
13/03/19 05:50 EGXU 130550Z AUTO 27020G35KT 9999 // BKN150/// 06/03 Q0991 W (270°) 23.0mph 40.3mph 6°C 3°C
13/03/19 04:50 EGXU 130450Z AUTO 27024G42KT 9999 // FEW031/// 07/04 Q0990 W (270°) 27.6mph 48.3mph 7°C 4°C
13/03/19 03:50 EGXU 130350Z AUTO 26019KT 9999 // SCT024/// SCT230/// 07/04 Q0989 W (260°) 21.9mph 7°C 4°C